createdAt,value
2018-03-28T04:00:52.495Z,0
2018-03-28T04:01:17.998Z,0
2018-03-28T04:01:43.484Z,0
2018-03-28T04:02:08.971Z,0
2018-03-28T04:02:34.513Z,0
2018-03-28T04:03:00.030Z,0
2018-03-28T04:03:25.491Z,0
2018-03-28T04:03:51.033Z,0
2018-03-28T04:04:16.513Z,0
2018-03-28T04:05:25.530Z,0
2018-03-28T04:05:50.991Z,0
2018-03-28T04:06:16.489Z,0
2018-03-28T04:06:41.970Z,0
2018-03-28T04:07:07.478Z,0
2018-03-28T04:07:32.948Z,0
2018-03-28T04:07:58.417Z,0
2018-03-28T04:08:23.927Z,0
2018-03-28T04:09:42.928Z,0
2018-03-28T04:10:08.330Z,0
2018-03-28T04:10:33.840Z,0
2018-03-28T04:11:52.734Z,0
2018-03-28T04:12:18.230Z,0
2018-03-28T04:12:43.714Z,0
2018-03-28T04:13:09.241Z,0
2018-03-28T04:14:23.008Z,0
2018-03-28T04:14:48.499Z,0
2018-03-28T04:15:14.006Z,0
2018-03-28T04:15:39.478Z,0
2018-03-28T04:16:04.967Z,0
2018-03-28T04:16:30.483Z,0
2018-03-28T04:16:56.030Z,0
2018-03-28T04:17:21.476Z,0
2018-03-28T04:17:46.958Z,0
2018-03-28T04:18:12.478Z,0
2018-03-28T04:18:37.976Z,0
2018-03-28T04:19:03.453Z,0
2018-03-28T04:19:28.927Z,0
2018-03-28T04:19:54.416Z,0
2018-03-28T04:20:19.876Z,0
2018-03-28T04:20:45.400Z,0
2018-03-28T04:21:10.888Z,0
2018-03-28T04:21:36.401Z,0
2018-03-28T04:22:01.884Z,0
2018-03-28T04:22:27.377Z,0
2018-03-28T04:22:52.866Z,0
2018-03-28T04:23:18.365Z,0
2018-03-28T04:23:43.843Z,0
2018-03-28T04:24:09.361Z,0
2018-03-28T04:24:34.844Z,0
2018-03-28T04:25:00.375Z,0
2018-03-28T04:25:25.837Z,0
2018-03-28T04:25:51.304Z,0
2018-03-28T04:26:16.804Z,0
2018-03-28T04:26:42.247Z,0
2018-03-28T04:27:07.747Z,0
2018-03-28T04:27:33.216Z,0
2018-03-28T04:27:58.681Z,0
2018-03-28T04:28:24.159Z,0
2018-03-28T04:28:49.679Z,0
2018-03-28T04:29:15.165Z,0
2018-03-28T04:29:40.637Z,0
2018-03-28T04:30:06.177Z,0
2018-03-28T04:30:31.652Z,0
2018-03-28T04:30:57.154Z,0
2018-03-28T04:31:22.625Z,0
2018-03-28T04:31:48.133Z,0
2018-03-28T04:32:13.636Z,0
2018-03-28T04:32:39.179Z,0
2018-03-28T04:33:04.646Z,0
2018-03-28T04:33:30.151Z,0
2018-03-28T04:33:55.646Z,0
2018-03-28T04:34:21.153Z,0
2018-03-28T04:34:46.628Z,0
2018-03-28T04:35:12.124Z,0
2018-03-28T04:35:37.608Z,0
2018-03-28T04:36:51.418Z,0
2018-03-28T04:37:16.901Z,0
2018-03-28T04:37:42.397Z,0
2018-03-28T04:38:07.871Z,0
2018-03-28T04:38:33.377Z,0
2018-03-28T04:38:58.901Z,0
2018-03-28T04:39:24.401Z,0
2018-03-28T04:39:49.899Z,0
2018-03-28T04:40:15.420Z,0
2018-03-28T04:40:40.900Z,0
2018-03-28T04:41:06.399Z,0
2018-03-28T04:41:31.879Z,0
2018-03-28T04:41:57.369Z,0
2018-03-28T04:42:22.878Z,0
2018-03-28T04:42:48.356Z,0
2018-03-28T04:43:13.858Z,0
2018-03-28T04:43:39.337Z,0
2018-03-28T04:44:04.844Z,0
2018-03-28T04:44:30.360Z,0
2018-03-28T04:44:55.892Z,0
2018-03-28T04:45:21.402Z,0
2018-03-28T04:45:46.894Z,0
2018-03-28T04:46:12.379Z,0
2018-03-28T04:46:37.902Z,0
2018-03-28T04:47:03.374Z,0
2018-03-28T04:47:28.860Z,0
2018-03-28T04:47:54.356Z,0
2018-03-28T04:48:19.870Z,0
2018-03-28T04:48:45.325Z,0
2018-03-28T04:49:10.830Z,0
2018-03-28T04:49:36.324Z,0
2018-03-28T04:50:01.812Z,0
2018-03-28T04:50:27.327Z,0
2018-03-28T04:50:52.818Z,0
2018-03-28T04:51:18.310Z,0
2018-03-28T04:51:43.818Z,0
2018-03-28T04:52:09.321Z,0
2018-03-28T04:52:34.792Z,0
2018-03-28T04:53:00.278Z,0
2018-03-28T04:53:25.808Z,0
2018-03-28T04:54:49.833Z,0
2018-03-28T04:55:15.315Z,0
2018-03-28T04:55:40.799Z,0
2018-03-28T04:56:06.282Z,0
2018-03-28T04:56:31.780Z,0
2018-03-28T04:56:57.272Z,0
2018-03-28T04:57:22.755Z,0
2018-03-28T04:57:48.274Z,0
2018-03-28T04:58:13.795Z,0
2018-03-28T04:58:39.305Z,0
2018-03-28T04:59:04.809Z,0
2018-03-28T04:59:30.336Z,0
2018-03-28T04:59:55.794Z,0
2018-03-28T05:01:24.933Z,0
2018-03-28T05:01:50.416Z,0
2018-03-28T05:02:15.914Z,0
2018-03-28T05:02:41.410Z,0
2018-03-28T05:03:06.923Z,0
2018-03-28T05:03:32.407Z,0
2018-03-28T05:03:57.907Z,0
2018-03-28T05:04:23.427Z,0
2018-03-28T05:04:48.929Z,0
2018-03-28T05:05:14.546Z,0
2018-03-28T05:05:40.028Z,0
2018-03-28T05:06:05.552Z,0
2018-03-28T05:06:31.260Z,0
2018-03-28T05:06:56.974Z,0
2018-03-28T05:07:22.431Z,0
2018-03-28T05:07:47.917Z,0
2018-03-28T05:08:13.390Z,0
2018-03-28T05:08:38.858Z,0
2018-03-28T05:09:04.352Z,0
2018-03-28T05:09:29.852Z,0
2018-03-28T05:10:38.070Z,0
2018-03-28T05:11:03.578Z,0
2018-03-28T05:11:29.076Z,0
2018-03-28T05:11:54.565Z,0
2018-03-28T05:12:20.078Z,0
2018-03-28T05:12:45.568Z,0
2018-03-28T05:13:11.046Z,0
2018-03-28T05:13:36.537Z,0
2018-03-28T05:14:02.037Z,0
2018-03-28T05:14:27.553Z,0
2018-03-28T05:14:53.136Z,0
2018-03-28T05:15:18.658Z,0
2018-03-28T05:15:44.287Z,0
2018-03-28T05:16:09.764Z,0
2018-03-28T05:16:35.234Z,0
2018-03-28T05:17:00.714Z,0
2018-03-28T05:17:26.287Z,0
2018-03-28T05:18:55.372Z,0
2018-03-28T05:19:20.903Z,0
2018-03-28T05:19:46.397Z,0
2018-03-28T05:20:11.869Z,0
2018-03-28T05:20:37.360Z,0
2018-03-28T05:21:03.020Z,0
2018-03-28T05:21:28.459Z,0
2018-03-28T05:21:53.931Z,0
2018-03-28T05:22:19.434Z,0
2018-03-28T05:22:44.932Z,0
2018-03-28T05:23:10.437Z,0
2018-03-28T05:23:35.933Z,0
2018-03-28T05:24:01.454Z,0
2018-03-28T05:24:26.984Z,0
2018-03-28T05:24:52.525Z,0
2018-03-28T05:25:18.053Z,0
2018-03-28T05:26:42.114Z,0
2018-03-28T05:27:07.579Z,0
2018-03-28T05:27:33.063Z,0
2018-03-28T05:27:58.556Z,0
2018-03-28T05:28:24.039Z,0
2018-03-28T05:28:49.532Z,0
2018-03-28T05:29:14.981Z,5
2018-03-28T05:29:40.481Z,5
2018-03-28T05:30:06.036Z,5
2018-03-28T05:30:31.531Z,5
2018-03-28T05:30:57.003Z,5
2018-03-28T05:31:22.500Z,5
2018-03-28T05:31:47.977Z,5
2018-03-28T05:32:13.489Z,5
2018-03-28T05:32:38.966Z,5
2018-03-28T05:33:04.442Z,5
2018-03-28T05:33:29.986Z,5
2018-03-28T05:33:55.390Z,0
2018-03-28T05:34:20.863Z,0
2018-03-28T05:34:46.330Z,0
2018-03-28T05:35:11.848Z,0
2018-03-28T05:35:37.353Z,0
2018-03-28T05:36:02.823Z,0
2018-03-28T05:36:28.302Z,0
2018-03-28T05:36:53.797Z,0
2018-03-28T05:37:19.318Z,0
2018-03-28T05:37:44.811Z,0
2018-03-28T05:38:10.265Z,0
2018-03-28T05:38:35.751Z,0
2018-03-28T05:39:01.273Z,5
2018-03-28T05:39:26.823Z,5
2018-03-28T05:39:52.354Z,5
2018-03-28T05:40:17.936Z,5
2018-03-28T05:40:43.467Z,5
2018-03-28T05:41:08.979Z,5
2018-03-28T05:41:34.522Z,5
2018-03-28T05:42:00.029Z,5
2018-03-28T05:42:25.567Z,5
2018-03-28T05:42:51.132Z,5
2018-03-28T05:43:16.606Z,5
2018-03-28T05:43:42.090Z,5
2018-03-28T05:44:07.580Z,5
2018-03-28T05:44:33.111Z,5
2018-03-28T05:44:58.606Z,5
2018-03-28T05:45:24.095Z,5
2018-03-28T05:45:49.590Z,5
2018-03-28T05:46:15.085Z,5
2018-03-28T05:46:40.567Z,5
2018-03-28T05:47:06.089Z,5
2018-03-28T05:47:31.583Z,10
2018-03-28T05:47:57.080Z,10
2018-03-28T05:48:22.552Z,5
2018-03-28T05:48:48.048Z,5
2018-03-28T05:49:13.550Z,5
2018-03-28T05:49:39.037Z,5
2018-03-28T05:50:04.525Z,5
2018-03-28T05:50:30.039Z,5
2018-03-28T05:50:55.477Z,5
2018-03-28T05:51:20.940Z,5
2018-03-28T05:51:46.411Z,5
2018-03-28T05:52:11.918Z,10
2018-03-28T05:52:37.406Z,10
2018-03-28T05:53:02.942Z,10
2018-03-28T05:53:28.438Z,10
2018-03-28T05:53:53.938Z,10
2018-03-28T05:54:19.429Z,10
2018-03-28T05:54:44.922Z,10
2018-03-28T05:55:10.436Z,10
2018-03-28T05:55:35.909Z,10
2018-03-28T05:56:01.433Z,10
2018-03-28T05:56:26.938Z,10
2018-03-28T05:56:52.416Z,10
2018-03-28T05:57:17.905Z,10
2018-03-28T05:57:43.362Z,10
2018-03-28T05:58:08.880Z,10
2018-03-28T05:58:34.361Z,15
2018-03-28T05:58:59.844Z,15
2018-03-28T05:59:25.371Z,15
2018-03-28T05:59:50.853Z,10
2018-03-28T06:00:16.352Z,10
2018-03-28T06:00:41.871Z,10
2018-03-28T06:01:07.361Z,10
2018-03-28T06:01:32.886Z,10
2018-03-28T06:01:58.441Z,15
2018-03-28T06:02:23.881Z,15
2018-03-28T06:02:49.495Z,15
2018-03-28T06:03:14.850Z,15
2018-03-28T06:03:40.366Z,15
2018-03-28T06:04:05.849Z,15
2018-03-28T06:04:31.368Z,15
2018-03-28T06:04:56.872Z,15
2018-03-28T06:05:22.365Z,15
2018-03-28T06:05:47.840Z,15
2018-03-28T06:06:13.362Z,15
2018-03-28T06:06:38.865Z,15
2018-03-28T06:07:04.386Z,10
2018-03-28T06:07:29.930Z,10
2018-03-28T06:07:55.354Z,10
2018-03-28T06:08:20.835Z,10
2018-03-28T06:08:46.321Z,10
2018-03-28T06:09:11.832Z,10
2018-03-28T06:09:37.329Z,10
2018-03-28T06:10:02.836Z,10
2018-03-28T06:10:28.342Z,10
2018-03-28T06:10:53.842Z,15
2018-03-28T06:11:19.400Z,15
2018-03-28T06:11:44.956Z,15
2018-03-28T06:12:10.525Z,15
2018-03-28T06:12:36.005Z,15
2018-03-28T06:13:01.518Z,15
2018-03-28T06:13:27.058Z,15
2018-03-28T06:13:52.537Z,15
2018-03-28T06:14:18.155Z,15
2018-03-28T06:14:43.737Z,15
2018-03-28T06:15:09.209Z,15
2018-03-28T06:15:34.787Z,15
2018-03-28T06:16:00.214Z,20
2018-03-28T06:16:25.705Z,20
2018-03-28T06:16:51.212Z,20
2018-03-28T06:17:16.749Z,20
2018-03-28T06:17:42.227Z,20
2018-03-28T06:18:07.700Z,20
2018-03-28T06:18:33.273Z,20
2018-03-28T06:18:58.836Z,20
2018-03-28T06:19:24.405Z,20
2018-03-28T06:19:49.934Z,20
2018-03-28T06:20:15.393Z,20
2018-03-28T06:20:40.867Z,20
2018-03-28T06:21:06.439Z,20
2018-03-28T06:21:32.009Z,20
2018-03-28T06:21:57.649Z,20
2018-03-28T06:22:23.239Z,20
2018-03-28T06:22:48.870Z,20
2018-03-28T06:23:14.685Z,25
2018-03-28T06:23:40.095Z,25
2018-03-28T06:24:05.708Z,25
2018-03-28T06:24:31.306Z,25
2018-03-28T06:24:56.927Z,25
2018-03-28T06:25:22.594Z,25
2018-03-28T06:25:48.135Z,25
2018-03-28T06:26:13.739Z,20
2018-03-28T06:26:39.295Z,20
2018-03-28T06:27:04.941Z,20
2018-03-28T06:27:30.531Z,20
2018-03-28T06:27:56.130Z,20
2018-03-28T06:28:21.752Z,20
2018-03-28T06:28:47.538Z,20
2018-03-28T06:29:13.169Z,20
2018-03-28T06:29:38.754Z,20
2018-03-28T06:30:04.411Z,20
2018-03-28T06:30:29.924Z,20
2018-03-28T06:30:55.658Z,20
2018-03-28T06:31:21.274Z,20
2018-03-28T06:31:46.854Z,20
2018-03-28T06:32:12.381Z,20
2018-03-28T06:32:38.028Z,20
2018-03-28T06:33:03.595Z,20
2018-03-28T06:33:29.203Z,20
2018-03-28T06:33:54.756Z,20
2018-03-28T06:34:20.405Z,20
2018-03-28T06:34:46.132Z,25
2018-03-28T06:35:11.591Z,25
2018-03-28T06:35:37.190Z,25
2018-03-28T06:36:02.808Z,25
2018-03-28T06:37:32.392Z,25
2018-03-28T06:37:57.993Z,30
2018-03-28T06:38:23.512Z,30
2018-03-28T06:38:49.141Z,30
2018-03-28T06:39:14.698Z,35
2018-03-28T06:39:40.398Z,35
2018-03-28T06:40:06.159Z,35
2018-03-28T06:40:31.705Z,35
2018-03-28T06:40:57.401Z,35
2018-03-28T06:41:22.993Z,40
2018-03-28T06:41:48.675Z,40
2018-03-28T06:42:14.375Z,40
2018-03-28T06:42:40.111Z,40
2018-03-28T06:43:05.679Z,40
2018-03-28T06:43:31.210Z,40
2018-03-28T06:43:56.778Z,40
2018-03-28T06:44:22.219Z,40
2018-03-28T06:44:47.773Z,40
2018-03-28T06:45:13.261Z,40
2018-03-28T06:45:38.757Z,40
2018-03-28T06:46:04.371Z,40
2018-03-28T06:46:29.897Z,40
2018-03-28T06:46:55.506Z,45
2018-03-28T06:47:21.142Z,45
2018-03-28T06:47:46.543Z,40
2018-03-28T06:48:12.026Z,40
2018-03-28T06:48:37.645Z,40
2018-03-28T06:49:03.181Z,45
2018-03-28T06:49:28.742Z,45
2018-03-28T06:49:54.247Z,45
2018-03-28T06:50:19.809Z,40
2018-03-28T06:50:45.249Z,40
2018-03-28T06:51:10.750Z,40
2018-03-28T06:51:36.318Z,40
2018-03-28T06:52:01.849Z,40
2018-03-28T06:52:27.344Z,35
2018-03-28T06:52:52.868Z,35
2018-03-28T06:53:18.426Z,35
2018-03-28T06:53:43.904Z,35
2018-03-28T06:54:09.406Z,30
2018-03-28T06:54:34.875Z,25
2018-03-28T06:55:00.388Z,25
2018-03-28T06:55:25.878Z,25
2018-03-28T06:55:51.452Z,30
2018-03-28T06:56:16.954Z,25
2018-03-28T06:56:42.505Z,25
2018-03-28T06:57:08.114Z,25
2018-03-28T06:57:33.674Z,25
2018-03-28T06:57:59.177Z,30
2018-03-28T06:58:24.796Z,30
2018-03-28T06:58:50.378Z,30
2018-03-28T06:59:15.910Z,30
2018-03-28T06:59:41.621Z,35
2018-03-28T07:00:07.172Z,35
2018-03-28T07:00:32.632Z,35
2018-03-28T07:00:58.161Z,40
2018-03-28T07:01:23.786Z,40
2018-03-28T07:01:49.250Z,40
2018-03-28T07:02:14.800Z,40
2018-03-28T07:02:40.269Z,40
2018-03-28T07:03:05.779Z,45
2018-03-28T07:03:31.268Z,45
2018-03-28T07:03:56.787Z,45
2018-03-28T07:04:22.383Z,50
2018-03-28T07:04:47.941Z,50
2018-03-28T07:05:13.447Z,55
2018-03-28T07:05:39.262Z,60
2018-03-28T07:06:04.797Z,60
2018-03-28T07:06:30.421Z,65
2018-03-28T07:06:56.033Z,60
2018-03-28T07:07:21.625Z,60
2018-03-28T07:07:47.203Z,55
2018-03-28T07:08:12.916Z,55
2018-03-28T07:08:38.452Z,55
2018-03-28T07:09:04.016Z,55
2018-03-28T07:09:29.632Z,60
2018-03-28T07:09:55.233Z,65
2018-03-28T07:10:20.906Z,75
2018-03-28T07:10:46.430Z,80
2018-03-28T07:11:12.040Z,75
2018-03-28T07:11:37.604Z,80
2018-03-28T07:12:03.151Z,80
2018-03-28T07:12:28.797Z,80
2018-03-28T07:12:54.342Z,80
2018-03-28T07:13:19.971Z,85
2018-03-28T07:13:45.494Z,95
2018-03-28T07:14:11.268Z,100
2018-03-28T07:14:36.871Z,100
2018-03-28T07:15:02.501Z,110
2018-03-28T07:15:28.224Z,115
2018-03-28T07:15:53.989Z,110
2018-03-28T07:16:19.703Z,100
2018-03-28T07:16:45.225Z,95
2018-03-28T07:17:10.996Z,100
2018-03-28T07:17:36.488Z,100
2018-03-28T07:19:00.579Z,105
2018-03-28T07:19:26.164Z,110
2018-03-28T07:19:51.698Z,100
2018-03-28T07:20:17.309Z,105
2018-03-28T07:20:43.049Z,110
2018-03-28T07:21:08.634Z,105
2018-03-28T07:21:34.165Z,110
2018-03-28T07:21:59.782Z,110
2018-03-28T07:22:25.425Z,110
2018-03-28T07:22:51.200Z,110
2018-03-28T07:23:16.713Z,105
2018-03-28T07:23:42.377Z,100
2018-03-28T07:24:07.994Z,100
2018-03-28T07:24:33.694Z,90
2018-03-28T07:24:59.277Z,95
2018-03-28T07:25:24.792Z,95
2018-03-28T07:25:50.585Z,90
2018-03-28T07:26:16.148Z,95
2018-03-28T07:27:30.130Z,90
2018-03-28T07:27:55.809Z,85
2018-03-28T07:28:21.419Z,80
2018-03-28T07:28:47.157Z,75
2018-03-28T07:29:12.611Z,70
2018-03-28T07:29:38.213Z,75
2018-03-28T07:30:03.762Z,90
2018-03-28T07:30:29.323Z,90
2018-03-28T07:31:49.321Z,65
2018-03-28T07:32:14.815Z,65
2018-03-28T07:32:40.489Z,60
2018-03-28T07:33:06.320Z,70
2018-03-28T07:33:31.908Z,75
2018-03-28T07:33:57.501Z,80
2018-03-28T07:34:23.190Z,80
2018-03-28T07:34:48.778Z,75
2018-03-28T07:35:14.278Z,75
2018-03-28T07:35:39.831Z,75
2018-03-28T07:36:05.419Z,80
2018-03-28T07:36:31.150Z,80
2018-03-28T07:36:56.730Z,85
2018-03-28T07:37:22.223Z,75
2018-03-28T07:37:47.822Z,80
2018-03-28T07:38:13.527Z,90
2018-03-28T07:38:39.197Z,85
2018-03-28T07:39:04.955Z,85
2018-03-28T07:39:30.548Z,85
2018-03-28T07:39:56.135Z,75
2018-03-28T07:40:21.715Z,65
2018-03-28T07:40:47.262Z,70
2018-03-28T07:41:12.888Z,75
2018-03-28T07:41:38.445Z,70
2018-03-28T07:42:04.033Z,65
2018-03-28T07:42:29.662Z,70
2018-03-28T07:42:55.295Z,65
2018-03-28T07:43:21.096Z,65
2018-03-28T07:43:46.875Z,65
2018-03-28T07:44:12.606Z,65
2018-03-28T07:44:38.475Z,65
2018-03-28T07:45:04.141Z,75
2018-03-28T07:45:29.745Z,85
2018-03-28T07:45:55.257Z,90
2018-03-28T07:46:20.838Z,85
2018-03-28T07:46:46.489Z,75
2018-03-28T07:47:12.035Z,75
2018-03-28T07:47:37.676Z,75
2018-03-28T07:48:03.473Z,80
2018-03-28T07:48:29.058Z,80
2018-03-28T07:48:54.635Z,80
2018-03-28T07:49:20.448Z,85
2018-03-28T07:49:46.108Z,95
2018-03-28T07:50:11.655Z,105
2018-03-28T07:50:37.285Z,105
2018-03-28T07:51:02.932Z,95
2018-03-28T07:51:28.556Z,85
2018-03-28T07:51:54.159Z,85
2018-03-28T07:52:19.821Z,80
2018-03-28T07:52:45.338Z,75
2018-03-28T07:53:10.961Z,70
2018-03-28T07:53:36.695Z,70
2018-03-28T07:54:02.369Z,70
2018-03-28T07:54:28.045Z,70
2018-03-28T07:54:53.689Z,70
2018-03-28T07:55:19.401Z,65
2018-03-28T07:55:45.006Z,65
2018-03-28T07:56:10.570Z,65
2018-03-28T07:56:35.999Z,60
2018-03-28T07:57:01.508Z,60
2018-03-28T07:57:27.120Z,65
2018-03-28T07:57:53.388Z,70
2018-03-28T07:58:21.082Z,75
2018-03-28T07:58:47.926Z,70
2018-03-28T07:59:14.726Z,65
2018-03-28T07:59:40.967Z,55
2018-03-28T08:00:07.727Z,50
2018-03-28T08:00:33.247Z,50
2018-03-28T08:00:58.726Z,50
2018-03-28T08:02:08.033Z,55
2018-03-28T08:02:33.709Z,50
2018-03-28T08:02:59.777Z,50
2018-03-28T08:03:25.525Z,50
2018-03-28T08:03:51.284Z,50
2018-03-28T08:04:17.013Z,50
2018-03-28T08:04:42.680Z,55
2018-03-28T08:05:08.328Z,65
2018-03-28T08:05:33.916Z,75
2018-03-28T08:05:59.537Z,90
2018-03-28T08:06:25.088Z,100
2018-03-28T08:06:50.820Z,105
2018-03-28T08:07:16.426Z,110
2018-03-28T08:07:41.972Z,120
2018-03-28T08:08:07.573Z,120
2018-03-28T08:08:33.185Z,125
2018-03-28T08:08:58.738Z,115
2018-03-28T08:09:24.407Z,105
2018-03-28T08:09:50.072Z,120
2018-03-28T08:10:15.716Z,120
2018-03-28T08:10:41.406Z,125
2018-03-28T08:11:07.054Z,130
2018-03-28T08:11:32.710Z,130
2018-03-28T08:11:58.477Z,160
2018-03-28T08:12:24.095Z,165
2018-03-28T08:12:49.812Z,150
2018-03-28T08:13:15.497Z,135
2018-03-28T08:13:41.070Z,140
2018-03-28T08:14:07.358Z,155
2018-03-28T08:14:33.081Z,165
2018-03-28T08:14:58.737Z,165
2018-03-28T08:15:24.509Z,165
2018-03-28T08:15:50.118Z,165
2018-03-28T08:16:15.669Z,160
2018-03-28T08:16:41.317Z,160
2018-03-28T08:17:07.000Z,155
2018-03-28T08:17:32.706Z,165
2018-03-28T08:17:58.416Z,165
2018-03-28T08:18:23.961Z,165
2018-03-28T08:18:49.588Z,160
2018-03-28T08:19:15.325Z,165
2018-03-28T08:19:40.921Z,185
2018-03-28T08:20:06.768Z,210
2018-03-28T08:20:32.307Z,230
2018-03-28T08:20:57.930Z,235
2018-03-28T08:21:23.518Z,245
2018-03-28T08:21:49.094Z,265
2018-03-28T08:22:14.759Z,270
2018-03-28T08:22:40.344Z,270
2018-03-28T08:23:06.027Z,285
2018-03-28T08:23:31.738Z,275
2018-03-28T08:23:57.452Z,265
2018-03-28T08:24:22.993Z,260
2018-03-28T08:24:48.631Z,255
2018-03-28T08:25:14.358Z,250
2018-03-28T08:25:39.961Z,245
2018-03-28T08:26:05.554Z,235
2018-03-28T08:26:31.194Z,235
2018-03-28T08:26:56.829Z,230
2018-03-28T08:27:22.526Z,230
2018-03-28T08:27:48.262Z,230
2018-03-28T08:28:14.116Z,230
2018-03-28T08:28:39.990Z,235
2018-03-28T08:29:05.632Z,235
2018-03-28T08:29:31.174Z,225
2018-03-28T08:29:56.792Z,220
2018-03-28T08:30:22.310Z,220
2018-03-28T08:30:48.050Z,225
2018-03-28T08:31:13.841Z,225
2018-03-28T08:31:39.548Z,235
2018-03-28T08:32:59.213Z,265
2018-03-28T08:34:17.865Z,260
2018-03-28T08:34:43.473Z,260
2018-03-28T08:35:09.097Z,260
2018-03-28T08:35:34.827Z,255
2018-03-28T08:36:00.494Z,255
2018-03-28T08:36:26.172Z,260
2018-03-28T08:36:51.909Z,255
2018-03-28T08:37:17.504Z,245
2018-03-28T08:37:43.067Z,250
2018-03-28T08:38:08.800Z,275
2018-03-28T08:38:34.409Z,300
2018-03-28T08:39:00.110Z,310
2018-03-28T08:39:25.755Z,310
2018-03-28T08:39:51.507Z,305
2018-03-28T08:40:17.250Z,305
2018-03-28T08:40:43.059Z,310
2018-03-28T08:41:08.586Z,325
2018-03-28T08:41:34.408Z,320
2018-03-28T08:41:59.961Z,310
2018-03-28T08:42:25.603Z,305
2018-03-28T08:42:51.355Z,300
2018-03-28T08:43:16.960Z,295
2018-03-28T08:43:42.576Z,285
2018-03-28T08:44:08.153Z,280
2018-03-28T08:44:33.752Z,270
2018-03-28T08:44:59.363Z,260
2018-03-28T08:45:24.969Z,250
2018-03-28T08:45:50.530Z,245
2018-03-28T08:46:16.127Z,230
2018-03-28T08:46:41.926Z,235
2018-03-28T08:47:07.609Z,260
2018-03-28T08:47:33.233Z,285
2018-03-28T08:47:58.902Z,300
2018-03-28T08:48:24.730Z,310
2018-03-28T08:48:50.326Z,320
2018-03-28T08:49:15.928Z,335
2018-03-28T08:49:41.452Z,340
2018-03-28T08:50:07.027Z,340
2018-03-28T08:50:32.660Z,340
2018-03-28T08:50:58.354Z,330
2018-03-28T08:51:23.968Z,335
2018-03-28T08:51:49.566Z,325
2018-03-28T08:52:59.255Z,340
2018-03-28T08:53:24.859Z,345
2018-03-28T08:53:50.432Z,340
2018-03-28T08:54:16.015Z,335
2018-03-28T08:54:41.691Z,335
2018-03-28T08:55:07.298Z,335
2018-03-28T08:55:32.883Z,325
2018-03-28T08:55:58.693Z,325
2018-03-28T08:56:24.319Z,320
2018-03-28T08:56:49.914Z,315
2018-03-28T08:57:15.453Z,315
2018-03-28T08:57:41.011Z,315
2018-03-28T08:58:06.768Z,320
2018-03-28T08:58:32.317Z,305
2018-03-28T08:58:57.966Z,290
2018-03-28T08:59:23.680Z,280
2018-03-28T08:59:49.566Z,265
2018-03-28T09:00:15.375Z,270
2018-03-28T09:00:40.994Z,280
2018-03-28T09:01:06.745Z,290
2018-03-28T09:01:32.406Z,295
2018-03-28T09:01:58.223Z,295
2018-03-28T09:02:23.731Z,310
2018-03-28T09:02:49.306Z,315
2018-03-28T09:03:15.086Z,325
2018-03-28T09:03:40.694Z,335
2018-03-28T09:04:06.254Z,330
2018-03-28T09:04:31.880Z,325
2018-03-28T09:04:57.575Z,325
2018-03-28T09:05:23.280Z,330
2018-03-28T09:05:48.906Z,325
2018-03-28T09:06:14.566Z,320
2018-03-28T09:06:40.179Z,315
2018-03-28T09:07:05.774Z,315
2018-03-28T09:07:31.417Z,315
2018-03-28T09:07:56.950Z,310
2018-03-28T09:08:22.574Z,305
2018-03-28T09:08:48.256Z,295
2018-03-28T09:09:13.857Z,295
2018-03-28T09:09:39.579Z,290
2018-03-28T09:11:08.542Z,275
2018-03-28T09:11:34.196Z,275
2018-03-28T09:11:59.815Z,270
2018-03-28T09:12:25.512Z,275
2018-03-28T09:12:51.219Z,265
2018-03-28T09:13:16.794Z,265
2018-03-28T09:13:42.449Z,270
2018-03-28T09:14:08.117Z,260
2018-03-28T09:14:33.673Z,260
2018-03-28T09:14:59.222Z,270
2018-03-28T09:15:25.030Z,270
2018-03-28T09:15:50.711Z,265
2018-03-28T09:16:16.277Z,255
2018-03-28T09:16:41.851Z,250
2018-03-28T09:17:07.508Z,260
2018-03-28T09:17:33.213Z,270
2018-03-28T09:17:58.656Z,280
2018-03-28T09:18:24.324Z,285
2018-03-28T09:18:51.338Z,285
2018-03-28T09:19:17.221Z,285
2018-03-28T09:19:42.631Z,290
2018-03-28T09:20:08.264Z,290
2018-03-28T09:20:34.191Z,295
2018-03-28T09:21:00.018Z,295
2018-03-28T09:21:25.658Z,295
2018-03-28T09:21:51.285Z,295
2018-03-28T09:22:16.813Z,295
2018-03-28T09:22:42.736Z,290
2018-03-28T09:23:08.337Z,275
2018-03-28T09:23:34.022Z,275
2018-03-28T09:23:59.692Z,260
2018-03-28T09:24:25.258Z,255
2018-03-28T09:24:50.957Z,250
2018-03-28T09:25:16.537Z,250
2018-03-28T09:25:42.302Z,260
2018-03-28T09:26:08.056Z,275
2018-03-28T09:26:33.541Z,285
2018-03-28T09:26:59.383Z,295
2018-03-28T09:27:24.882Z,300
2018-03-28T09:27:50.476Z,305
2018-03-28T09:28:16.221Z,300
2018-03-28T09:28:41.897Z,295
2018-03-28T09:29:07.589Z,285
2018-03-28T09:29:33.142Z,260
2018-03-28T09:29:58.767Z,235
2018-03-28T09:30:24.442Z,225
2018-03-28T09:30:49.971Z,235
2018-03-28T09:31:15.552Z,240
2018-03-28T09:31:41.257Z,250
2018-03-28T09:32:06.823Z,250
2018-03-28T09:32:32.557Z,250
2018-03-28T09:32:58.138Z,250
2018-03-28T09:33:23.772Z,250
2018-03-28T09:33:49.390Z,245
2018-03-28T09:34:15.089Z,255
2018-03-28T09:34:40.706Z,260
2018-03-28T09:35:06.252Z,260
2018-03-28T09:35:31.832Z,255
2018-03-28T09:35:57.518Z,250
2018-03-28T09:36:23.159Z,250
2018-03-28T09:36:48.847Z,260
2018-03-28T09:37:14.665Z,270
2018-03-28T09:37:40.339Z,280
2018-03-28T09:38:06.008Z,285
2018-03-28T09:38:31.939Z,280
2018-03-28T09:38:57.509Z,280
2018-03-28T09:39:23.184Z,280
2018-03-28T09:39:48.904Z,275
2018-03-28T09:40:14.586Z,270
2018-03-28T09:40:40.655Z,270
2018-03-28T09:41:06.433Z,265
2018-03-28T09:41:32.094Z,260
2018-03-28T09:41:57.989Z,255
2018-03-28T09:42:23.774Z,235
2018-03-28T09:42:49.424Z,215
2018-03-28T09:43:14.993Z,200
2018-03-28T09:43:40.531Z,190
2018-03-28T09:44:06.218Z,195
2018-03-28T09:44:31.724Z,210
2018-03-28T09:44:57.304Z,225
2018-03-28T09:45:23.001Z,245
2018-03-28T09:45:48.613Z,260
2018-03-28T09:46:14.189Z,275
2018-03-28T09:46:39.821Z,280
2018-03-28T09:47:05.392Z,285
2018-03-28T09:47:31.116Z,285
2018-03-28T09:47:56.693Z,285
2018-03-28T09:48:22.390Z,280
2018-03-28T09:48:48.001Z,275
2018-03-28T09:49:13.761Z,260
2018-03-28T09:49:39.383Z,250
2018-03-28T09:50:05.158Z,250
2018-03-28T09:50:30.804Z,255
2018-03-28T09:50:56.619Z,260
2018-03-28T09:51:22.330Z,260
2018-03-28T09:51:48.044Z,265
2018-03-28T09:52:13.705Z,275
2018-03-28T09:52:39.334Z,275
2018-03-28T09:53:04.963Z,275
2018-03-28T09:53:30.595Z,285
2018-03-28T09:53:56.221Z,305
2018-03-28T09:54:21.820Z,310
2018-03-28T09:54:47.406Z,315
2018-03-28T09:55:13.049Z,320
2018-03-28T09:55:38.713Z,320
2018-03-28T09:56:04.248Z,325
2018-03-28T09:56:29.829Z,330
2018-03-28T09:56:55.424Z,335
2018-03-28T09:57:20.987Z,345
2018-03-28T09:57:46.738Z,340
2018-03-28T09:58:12.283Z,340
2018-03-28T09:58:37.902Z,340
2018-03-28T09:59:03.545Z,340
2018-03-28T09:59:29.210Z,330
2018-03-28T09:59:54.994Z,325
2018-03-28T10:00:20.613Z,325
2018-03-28T10:00:46.098Z,330
2018-03-28T10:01:11.729Z,335
2018-03-28T10:01:37.453Z,335
2018-03-28T10:02:02.965Z,340
2018-03-28T10:02:28.511Z,340
2018-03-28T10:02:54.007Z,340
2018-03-28T10:03:19.657Z,340
2018-03-28T10:03:45.115Z,340
2018-03-28T10:04:10.777Z,340
2018-03-28T10:04:36.266Z,345
2018-03-28T10:05:02.117Z,345
2018-03-28T10:05:27.634Z,350
2018-03-28T10:05:53.143Z,350
2018-03-28T10:06:18.682Z,350
2018-03-28T10:06:44.250Z,350
2018-03-28T10:07:09.890Z,350
2018-03-28T10:07:35.499Z,350
2018-03-28T10:08:01.131Z,350
2018-03-28T10:08:26.816Z,350
2018-03-28T10:08:52.478Z,350
2018-03-28T10:09:18.091Z,350
2018-03-28T10:09:43.696Z,350
2018-03-28T10:10:09.410Z,345
2018-03-28T10:10:34.963Z,345
2018-03-28T10:11:00.552Z,340
2018-03-28T10:11:26.101Z,340
2018-03-28T10:11:51.781Z,340
2018-03-28T10:12:17.361Z,340
2018-03-28T10:12:42.911Z,340
2018-03-28T10:13:08.398Z,335
2018-03-28T10:13:33.960Z,330
2018-03-28T10:13:59.570Z,325
2018-03-28T10:14:25.204Z,320
2018-03-28T10:14:50.757Z,320
2018-03-28T10:15:16.385Z,320
2018-03-28T10:15:42.370Z,320
2018-03-28T10:16:08.135Z,315
2018-03-28T10:16:33.693Z,310
2018-03-28T10:16:59.283Z,305
2018-03-28T10:17:24.826Z,310
2018-03-28T10:17:50.510Z,310
2018-03-28T10:18:16.110Z,315
2018-03-28T10:18:41.655Z,315
2018-03-28T10:19:07.182Z,310
2018-03-28T10:19:32.718Z,305
2018-03-28T10:19:58.454Z,305
2018-03-28T10:20:24.056Z,295
2018-03-28T10:20:49.667Z,295
2018-03-28T10:21:15.365Z,300